Terminal Aerodrome Forecast
Issued by NWS

Home | Current Version | Previous Version | Text Only | Print | Product List | Glossary On
Versions: 1 2 3 4 5 6 7 8 9 10 11 12 13 14 15 16 17 18 19 20 21 22 23 24 25 26 27 28 29 30 31 32
000
FTUS45 KBOU 212340
TAFBJC
TAF
KBJC 212340Z 2200/2224 29008KT P6SM SCT070 BKN180
     FM220300 30007KT P6SM VCSH SCT070 BKN150
     FM221100 31006KT P6SM SCT080 SCT150
     FM221500 VRB06KT P6SM SCT080 BKN150
     FM221900 09007KT P6SM VCSH SCT060 BKN140=

USA.gov is the U.S. government's official web portal to all federal, state and local government web resources and services.